createdAt,value
2018-07-14T00:00:36.143Z,4.33
2018-07-14T00:03:07.380Z,4.60
2018-07-14T00:05:38.147Z,4.60
2018-07-14T00:08:09.032Z,4.73
2018-07-14T00:10:40.268Z,4.70
2018-07-14T00:13:11.489Z,4.93
2018-07-14T00:15:42.685Z,5.30
2018-07-14T00:18:14.703Z,4.80
2018-07-14T00:20:46.094Z,4.70
2018-07-14T00:23:17.763Z,5.17
2018-07-14T00:25:54.484Z,4.93
2018-07-14T00:28:25.451Z,4.33
2018-07-14T00:30:56.681Z,4.63
2018-07-14T00:33:28.634Z,4.50
2018-07-14T00:36:00.452Z,4.80
2018-07-14T00:38:31.937Z,4.63
2018-07-14T00:41:02.960Z,4.67
2018-07-14T00:43:34.411Z,4.43
2018-07-14T00:46:06.121Z,4.23
2018-07-14T00:48:37.357Z,4.63
2018-07-14T00:51:08.579Z,4.27
2018-07-14T00:53:39.831Z,4.77
2018-07-14T00:56:11.673Z,4.97
2018-07-14T00:58:43.611Z,4.70
2018-07-14T01:01:14.832Z,4.60
2018-07-14T01:03:46.909Z,4.55
2018-07-14T01:06:18.122Z,4.87
2018-07-14T01:08:49.339Z,4.30
2018-07-14T01:11:20.623Z,4.57
2018-07-14T01:13:51.917Z,4.90
2018-07-14T01:16:23.212Z,4.78
2018-07-14T01:18:54.021Z,4.47
2018-07-14T01:21:24.901Z,4.30
2018-07-14T01:23:56.467Z,4.43
2018-07-14T01:26:27.981Z,4.10
2018-07-14T01:28:59.334Z,4.30
2018-07-14T01:31:31.433Z,4.63
2018-07-14T01:34:02.731Z,4.20
2018-07-14T01:36:33.542Z,4.40
2018-07-14T01:39:04.725Z,4.33
2018-07-14T01:41:35.813Z,4.03
2018-07-14T01:44:06.705Z,4.50
2018-07-14T01:46:37.525Z,4.37
2018-07-14T01:49:08.361Z,4.23
2018-07-14T01:51:39.023Z,4.03
2018-07-14T01:54:10.637Z,4.97
2018-07-14T01:56:42.382Z,4.03
2018-07-14T01:59:13.593Z,4.77
2018-07-14T02:01:44.924Z,4.43
2018-07-14T02:04:16.137Z,3.90
2018-07-14T02:06:48.070Z,4.20
2018-07-14T02:09:19.791Z,4.03
2018-07-14T02:11:51.027Z,3.97
2018-07-14T02:14:21.896Z,4.43
2018-07-14T02:16:53.542Z,4.40
2018-07-14T02:19:24.770Z,4.40
2018-07-14T02:21:56.010Z,4.20
2018-07-14T02:24:27.242Z,4.27
2018-07-14T02:26:58.448Z,4.57
2018-07-14T02:29:29.683Z,4.30
2018-07-14T02:32:01.114Z,4.63
2018-07-14T02:34:32.868Z,4.33
2018-07-14T02:37:04.956Z,4.70
2018-07-14T02:39:36.169Z,4.37
2018-07-14T02:42:07.853Z,4.17
2018-07-14T02:44:39.663Z,4.30
2018-07-14T02:47:10.446Z,4.53
2018-07-14T02:49:42.354Z,4.28
2018-07-14T02:52:15.433Z,4.28
2018-07-14T02:54:47.111Z,4.12
2018-07-14T02:57:18.636Z,4.70
2018-07-14T02:59:51.116Z,4.97
2018-07-14T03:02:22.980Z,4.65
2018-07-14T03:04:54.275Z,4.27
2018-07-14T03:07:25.522Z,4.28
2018-07-14T03:09:56.781Z,4.30
2018-07-14T03:12:28.015Z,4.40
2018-07-14T03:14:59.836Z,4.40
2018-07-14T03:17:30.979Z,4.23
2018-07-14T03:20:02.288Z,4.20
2018-07-14T03:22:33.067Z,4.40
2018-07-14T03:25:04.313Z,4.30
2018-07-14T03:27:35.422Z,4.20
2018-07-14T03:30:07.139Z,4.28
2018-07-14T03:32:38.348Z,4.60
2018-07-14T03:35:09.866Z,4.57
2018-07-14T03:37:40.866Z,4.70
2018-07-14T03:40:12.316Z,4.30
2018-07-14T03:42:43.533Z,4.40
2018-07-14T03:45:14.538Z,4.30
2018-07-14T03:47:46.476Z,4.90
2018-07-14T03:50:17.882Z,4.70
2018-07-14T03:52:49.510Z,4.70
2018-07-14T03:55:20.677Z,4.47
2018-07-14T03:57:51.974Z,4.90
2018-07-14T04:00:23.918Z,4.30
2018-07-14T04:02:55.722Z,5.00
2018-07-14T04:05:26.486Z,4.63
2018-07-14T04:07:57.775Z,4.00
2018-07-14T04:10:29.408Z,4.13
2018-07-14T04:13:00.554Z,4.43
2018-07-14T04:15:31.449Z,4.80
2018-07-14T04:18:06.436Z,4.40
2018-07-14T04:20:38.217Z,4.50
2018-07-14T04:23:09.041Z,4.87
2018-07-14T04:25:39.778Z,4.23
2018-07-14T04:28:11.001Z,4.47
2018-07-14T04:30:42.558Z,4.43
2018-07-14T04:33:13.810Z,4.80
2018-07-14T04:35:45.598Z,5.20
2018-07-14T04:38:16.783Z,4.90
2018-07-14T04:40:48.293Z,5.00
2018-07-14T04:43:19.643Z,4.78
2018-07-14T04:45:51.262Z,4.73
2018-07-14T04:48:22.976Z,4.47
2018-07-14T04:50:54.186Z,5.63
2018-07-14T04:53:25.445Z,5.07
2018-07-14T04:55:56.724Z,4.83
2018-07-14T04:58:28.255Z,4.63
2018-07-14T05:00:59.404Z,4.70
2018-07-14T05:03:31.983Z,4.33
2018-07-14T05:06:03.804Z,4.65
2018-07-14T05:08:35.784Z,4.60
2018-07-14T05:11:07.974Z,4.75
2018-07-14T05:13:39.474Z,4.42
2018-07-14T05:16:10.810Z,4.65
2018-07-14T05:18:42.395Z,4.25
2018-07-14T05:21:13.792Z,4.25
2018-07-14T05:23:46.171Z,4.25
2018-07-14T05:26:18.262Z,3.90
2018-07-14T05:28:50.123Z,4.80
2018-07-14T05:31:22.111Z,4.35
2018-07-14T05:33:54.532Z,4.62
2018-07-14T05:36:26.282Z,4.42
2018-07-14T05:38:59.302Z,4.50
2018-07-14T05:41:31.329Z,4.17
2018-07-14T05:44:02.791Z,4.30
2018-07-14T05:46:34.386Z,4.03
2018-07-14T05:49:06.483Z,4.78
2018-07-14T05:51:38.918Z,4.45
2018-07-14T05:54:10.190Z,4.10
2018-07-14T05:56:42.193Z,4.25
2018-07-14T05:59:13.532Z,3.95
2018-07-14T06:01:45.683Z,4.45
2018-07-14T06:04:17.635Z,4.12
2018-07-14T06:06:49.017Z,4.22
2018-07-14T06:09:21.029Z,4.25
2018-07-14T06:11:53.455Z,4.17
2018-07-14T06:14:25.346Z,4.60
2018-07-14T06:16:57.297Z,4.50
2018-07-14T06:19:28.978Z,4.00
2018-07-14T06:22:01.653Z,3.85
2018-07-14T06:24:33.309Z,4.12
2018-07-14T06:27:04.805Z,4.12
2018-07-14T06:29:36.475Z,4.22
2018-07-14T06:32:09.094Z,3.85
2018-07-14T06:34:41.579Z,4.37
2018-07-14T06:37:13.624Z,4.28
2018-07-14T06:39:45.009Z,4.45
2018-07-14T06:42:17.510Z,3.80
2018-07-14T06:44:49.140Z,3.95
2018-07-14T06:47:21.657Z,4.40
2018-07-14T06:49:53.486Z,3.80
2018-07-14T06:52:25.074Z,3.90
2018-07-14T06:54:56.319Z,4.50
2018-07-14T06:57:27.923Z,4.00
2018-07-14T06:59:59.676Z,3.87
2018-07-14T07:02:31.228Z,4.20
2018-07-14T07:05:02.867Z,3.85
2018-07-14T07:07:34.961Z,3.98
2018-07-14T07:10:06.663Z,3.90
2018-07-14T07:12:39.221Z,4.28
2018-07-14T07:15:11.323Z,4.45
2018-07-14T07:17:43.040Z,4.08
2018-07-14T07:20:15.542Z,4.08
2018-07-14T07:22:47.609Z,4.83
2018-07-14T07:25:20.232Z,4.40
2018-07-14T07:27:51.842Z,4.60
2018-07-14T07:30:23.196Z,4.83
2018-07-14T07:32:55.154Z,4.17
2018-07-14T07:35:26.881Z,4.15
2018-07-14T07:37:58.646Z,4.35
2018-07-14T07:40:30.642Z,4.70
2018-07-14T07:43:02.406Z,3.95
2018-07-14T07:45:34.373Z,4.00
2018-07-14T07:48:06.502Z,4.17
2018-07-14T07:50:38.763Z,3.90
2018-07-14T07:53:10.704Z,4.30
2018-07-14T07:55:42.098Z,4.05
2018-07-14T07:58:13.671Z,4.20
2018-07-14T08:00:44.927Z,4.17
2018-07-14T08:03:16.952Z,4.22
2018-07-14T08:05:48.726Z,4.45
2018-07-14T08:08:20.867Z,3.92
2018-07-14T08:10:52.521Z,3.95
2018-07-14T08:13:24.007Z,4.12
2018-07-14T08:15:55.689Z,3.72
2018-07-14T08:18:28.254Z,4.08
2018-07-14T08:21:00.783Z,4.30
2018-07-14T08:23:32.597Z,3.75
2018-07-14T08:26:04.171Z,4.08
2018-07-14T08:28:36.603Z,3.62
2018-07-14T08:31:07.986Z,3.83
2018-07-14T08:33:39.680Z,3.80
2018-07-14T08:36:10.407Z,4.47
2018-07-14T08:38:42.139Z,3.80
2018-07-14T08:41:13.269Z,4.20
2018-07-14T08:43:44.703Z,4.62
2018-07-14T08:46:16.480Z,4.53
2018-07-14T08:48:48.208Z,4.85
2018-07-14T08:51:19.457Z,5.03
2018-07-14T08:53:51.199Z,4.72
2018-07-14T08:56:22.848Z,5.12
2018-07-14T08:58:54.432Z,5.12
2018-07-14T09:01:25.823Z,5.33
2018-07-14T09:03:57.400Z,5.78
2018-07-14T09:06:28.921Z,5.17
2018-07-14T09:09:00.304Z,5.00
2018-07-14T09:11:32.422Z,4.92
2018-07-14T09:14:04.542Z,5.22
2018-07-14T09:16:36.280Z,5.22
2018-07-14T09:19:07.841Z,5.35
2018-07-14T09:21:39.984Z,5.10
2018-07-14T09:24:11.939Z,4.40
2018-07-14T09:26:43.677Z,4.67
2018-07-14T09:29:14.937Z,4.75
2018-07-14T09:31:46.587Z,4.58
2018-07-14T09:34:17.813Z,4.67
2018-07-14T09:36:49.391Z,4.37
2018-07-14T09:39:21.438Z,4.37
2018-07-14T09:41:52.794Z,5.33
2018-07-14T09:44:24.514Z,4.53
2018-07-14T09:46:56.142Z,4.35
2018-07-14T09:49:29.472Z,5.08
2018-07-14T09:52:00.349Z,4.43
2018-07-14T09:54:31.938Z,4.05
2018-07-14T09:57:03.698Z,4.20
2018-07-14T09:59:34.911Z,4.25
2018-07-14T10:02:06.430Z,4.37
2018-07-14T10:04:38.122Z,4.65
2018-07-14T10:07:09.345Z,3.90
2018-07-14T10:09:40.572Z,4.43
2018-07-14T10:12:11.468Z,4.40
2018-07-14T10:14:43.035Z,5.07
2018-07-14T10:17:14.785Z,4.93
2018-07-14T10:19:46.343Z,4.65
2018-07-14T10:22:17.645Z,4.40
2018-07-14T10:24:49.931Z,4.85
2018-07-14T10:27:21.429Z,5.20
2018-07-14T10:29:53.030Z,4.42
2018-07-14T10:32:24.453Z,4.90
2018-07-14T10:34:56.806Z,4.75
2018-07-14T10:37:28.893Z,4.25
2018-07-14T10:40:00.784Z,4.80
2018-07-14T10:42:33.229Z,5.15
2018-07-14T10:45:05.312Z,4.95
2018-07-14T10:47:37.061Z,4.72
2018-07-14T10:50:08.975Z,4.80
2018-07-14T10:52:41.232Z,4.60
2018-07-14T10:55:13.721Z,5.95
2018-07-14T10:57:45.738Z,4.65
2018-07-14T11:00:17.866Z,4.45
2018-07-14T11:02:49.132Z,4.53
2018-07-14T11:05:20.736Z,4.93
2018-07-14T11:07:51.963Z,4.73
2018-07-14T11:10:23.255Z,5.17
2018-07-14T11:12:54.934Z,4.50
2018-07-14T11:15:26.489Z,4.57
2018-07-14T11:17:57.854Z,4.37
2018-07-14T11:20:29.055Z,4.60
2018-07-14T11:23:00.181Z,4.33
2018-07-14T11:25:32.438Z,4.42
2018-07-14T11:28:04.014Z,4.28
2018-07-14T11:30:36.240Z,4.08
2018-07-14T11:33:08.243Z,4.55
2018-07-14T11:35:40.718Z,4.70
2018-07-14T11:38:12.490Z,4.37
2018-07-14T11:40:44.044Z,4.30
2018-07-14T11:43:15.740Z,4.47
2018-07-14T11:45:46.954Z,4.60
2018-07-14T11:48:18.692Z,4.90
2018-07-14T11:50:50.725Z,4.27
2018-07-14T11:53:21.938Z,4.00
2018-07-14T11:55:53.183Z,4.47
2018-07-14T11:58:24.936Z,4.23
2018-07-14T12:00:56.516Z,4.40
2018-07-14T12:03:28.350Z,4.23
2018-07-14T12:05:59.928Z,4.43
2018-07-14T12:08:31.623Z,4.77
2018-07-14T12:11:04.499Z,4.23
2018-07-14T12:13:36.235Z,4.33
2018-07-14T12:16:08.412Z,4.30
2018-07-14T12:18:39.632Z,4.47
2018-07-14T12:21:11.606Z,3.77
2018-07-14T12:23:42.771Z,4.07
2018-07-14T12:26:14.481Z,4.27
2018-07-14T12:28:45.703Z,3.90
2018-07-14T12:31:16.582Z,4.50
2018-07-14T12:33:47.441Z,3.93
2018-07-14T12:36:18.686Z,4.17
2018-07-14T12:38:49.834Z,4.13
2018-07-14T12:41:21.061Z,3.77
2018-07-14T12:43:53.115Z,4.07
2018-07-14T12:46:24.303Z,3.87
2018-07-14T12:48:56.043Z,3.90
2018-07-14T12:51:27.345Z,3.70
2018-07-14T12:53:58.976Z,4.10
2018-07-14T12:56:31.072Z,3.93
2018-07-14T12:59:02.350Z,3.83
2018-07-14T13:01:33.965Z,3.80
2018-07-14T13:04:05.643Z,3.83
2018-07-14T13:06:36.844Z,3.70
2018-07-14T13:09:08.152Z,4.23
2018-07-14T13:11:39.738Z,3.73
2018-07-14T13:14:11.023Z,4.27
2018-07-14T13:16:42.192Z,4.20
2018-07-14T13:19:13.419Z,4.00
2018-07-14T13:21:44.941Z,4.03
2018-07-14T13:24:16.183Z,4.10
2018-07-14T13:26:47.149Z,4.07
2018-07-14T13:29:18.338Z,3.83
2018-07-14T13:31:49.976Z,3.90
2018-07-14T13:34:21.182Z,4.47
2018-07-14T13:36:52.055Z,4.07
2018-07-14T13:39:22.886Z,4.13
2018-07-14T13:41:54.023Z,3.60
2018-07-14T13:44:24.797Z,3.83
2018-07-14T13:46:55.648Z,4.13
2018-07-14T13:49:27.717Z,3.90
2018-07-14T13:51:59.377Z,3.87
2018-07-14T13:54:30.639Z,4.57
2018-07-14T13:57:02.757Z,4.33
2018-07-14T13:59:34.687Z,3.93
2018-07-14T14:02:07.348Z,3.80
2018-07-14T14:04:38.942Z,3.73
2018-07-14T14:07:10.342Z,3.33
2018-07-14T14:09:42.728Z,3.90
2018-07-14T14:12:14.894Z,3.80
2018-07-14T14:14:46.029Z,3.90
2018-07-14T14:17:18.223Z,3.98
2018-07-14T14:19:49.881Z,4.08
2018-07-14T14:22:21.530Z,3.97
2018-07-14T14:24:52.849Z,3.90
2018-07-14T14:27:24.531Z,3.87
2018-07-14T14:29:56.028Z,4.15
2018-07-14T14:32:28.307Z,4.20
2018-07-14T14:34:59.878Z,4.10
2018-07-14T14:37:32.449Z,3.93
2018-07-14T14:40:04.168Z,3.77
2018-07-14T14:42:35.268Z,4.20
2018-07-14T14:45:07.079Z,3.90
2018-07-14T14:47:38.629Z,4.10
2018-07-14T14:50:10.291Z,3.70
2018-07-14T14:52:42.789Z,4.28
2018-07-14T14:55:14.600Z,4.75
2018-07-14T14:57:46.131Z,5.10
2018-07-14T15:00:17.456Z,4.58
2018-07-14T15:02:49.614Z,4.42
2018-07-14T15:05:21.210Z,4.25
2018-07-14T15:07:53.329Z,3.98
2018-07-14T15:10:24.874Z,4.25
2018-07-14T15:12:57.117Z,4.28
2018-07-14T15:15:28.715Z,4.67
2018-07-14T15:18:00.345Z,4.15
2018-07-14T15:20:32.127Z,4.70
2018-07-14T15:23:04.110Z,4.17
2018-07-14T15:25:36.290Z,4.40
2018-07-14T15:28:08.559Z,4.15
2018-07-14T15:30:39.997Z,3.70
2018-07-14T15:33:12.296Z,4.25
2018-07-14T15:35:44.223Z,3.83
2018-07-14T15:38:16.015Z,4.05
2018-07-14T15:40:48.156Z,4.17
2018-07-14T15:43:19.421Z,4.20
2018-07-14T15:45:51.341Z,4.67
2018-07-14T15:48:23.027Z,4.03
2018-07-14T15:50:55.119Z,4.62
2018-07-14T15:53:27.312Z,4.70
2018-07-14T15:55:58.570Z,3.83
2018-07-14T15:58:30.556Z,4.35
2018-07-14T16:01:01.959Z,5.62
2018-07-14T16:03:33.619Z,5.35
2018-07-14T16:06:05.093Z,4.28
2018-07-14T16:08:37.648Z,4.78
2018-07-14T16:11:09.883Z,4.40
2018-07-14T16:13:41.409Z,4.50
2018-07-14T16:16:13.705Z,4.00
2018-07-14T16:18:45.196Z,4.50
2018-07-14T16:21:17.036Z,4.40
2018-07-14T16:23:48.735Z,4.20
2018-07-14T16:26:20.665Z,4.45
2018-07-14T16:28:52.480Z,4.05
2018-07-14T16:31:24.080Z,4.00
2018-07-14T16:33:56.253Z,4.20
2018-07-14T16:36:27.813Z,4.45
2018-07-14T16:39:00.736Z,4.90
2018-07-14T16:41:32.533Z,4.78
2018-07-14T16:44:04.508Z,4.15
2018-07-14T16:46:36.308Z,4.67
2018-07-14T16:49:08.298Z,4.53
2018-07-14T16:51:40.501Z,4.45
2018-07-14T16:54:12.675Z,4.80
2018-07-14T16:56:44.217Z,4.83
2018-07-14T16:59:16.447Z,5.15
2018-07-14T17:01:47.935Z,5.10
2018-07-14T17:04:19.673Z,4.78
2018-07-14T17:06:52.219Z,5.25
2018-07-14T17:09:23.962Z,5.40
2018-07-14T17:11:56.898Z,4.85
2018-07-14T17:14:28.523Z,5.08
2018-07-14T17:16:59.871Z,4.97
2018-07-14T17:19:31.884Z,4.95
2018-07-14T17:22:03.659Z,5.15
2018-07-14T17:24:36.025Z,4.78
2018-07-14T17:27:08.250Z,4.83
2018-07-14T17:29:40.424Z,4.90
2018-07-14T17:32:12.373Z,5.12
2018-07-14T17:34:44.905Z,5.00
2018-07-14T17:37:17.015Z,4.78
2018-07-14T17:39:48.696Z,4.97
2018-07-14T17:42:21.222Z,5.22
2018-07-14T17:44:53.774Z,4.75
2018-07-14T17:47:25.625Z,4.60
2018-07-14T17:49:57.098Z,4.40
2018-07-14T17:52:29.323Z,4.85
2018-07-14T17:55:00.932Z,4.60
2018-07-14T17:57:33.451Z,4.90
2018-07-14T18:00:05.663Z,4.40
2018-07-14T18:02:37.241Z,4.60
2018-07-14T18:05:09.724Z,4.92
2018-07-14T18:07:41.416Z,4.53
2018-07-14T18:10:13.978Z,5.33
2018-07-14T18:12:45.738Z,4.60
2018-07-14T18:15:17.314Z,4.83
2018-07-14T18:17:48.646Z,4.33
2018-07-14T18:20:20.209Z,4.67
2018-07-14T18:22:52.030Z,4.55
2018-07-14T18:25:23.531Z,4.22
2018-07-14T18:27:55.211Z,4.50
2018-07-14T18:30:27.340Z,4.83
2018-07-14T18:32:58.982Z,4.80
2018-07-14T18:35:30.762Z,5.08
2018-07-14T18:38:02.759Z,5.22
2018-07-14T18:40:34.535Z,4.33
2018-07-14T18:43:06.177Z,4.53
2018-07-14T18:45:37.770Z,5.10
2018-07-14T18:48:09.597Z,5.22
2018-07-14T18:50:41.089Z,5.00
2018-07-14T18:53:12.786Z,4.90
2018-07-14T18:55:44.912Z,4.28
2018-07-14T18:58:17.108Z,4.62
2018-07-14T19:00:49.105Z,4.60
2018-07-14T19:03:20.913Z,5.53
2018-07-14T19:05:52.418Z,5.08
2018-07-14T19:08:24.647Z,5.20
2018-07-14T19:10:56.258Z,4.80
2018-07-14T19:13:28.444Z,5.00
2018-07-14T19:16:00.036Z,5.08
2018-07-14T19:18:31.713Z,4.87
2018-07-14T19:21:03.535Z,4.97
2018-07-14T19:23:35.588Z,4.75
2018-07-14T19:26:08.268Z,5.05
2018-07-14T19:28:40.573Z,5.10
2018-07-14T19:31:12.371Z,4.95
2018-07-14T19:33:44.333Z,5.10
2018-07-14T19:36:16.931Z,4.90
2018-07-14T19:38:48.769Z,5.20
2018-07-14T19:41:20.719Z,5.42
2018-07-14T19:43:53.852Z,5.15
2018-07-14T19:46:25.821Z,4.87
2018-07-14T19:48:57.626Z,4.53
2018-07-14T19:51:29.609Z,5.35
2018-07-14T19:54:01.444Z,5.28
2018-07-14T19:56:33.389Z,4.80
2018-07-14T19:59:05.946Z,5.17
2018-07-14T20:01:38.084Z,4.90
2018-07-14T20:04:10.282Z,4.90
2018-07-14T20:06:42.308Z,4.80
2018-07-14T20:09:14.829Z,5.15
2018-07-14T20:11:46.593Z,5.07
2018-07-14T20:14:18.612Z,6.45
2018-07-14T20:16:50.428Z,4.95
2018-07-14T20:19:22.386Z,5.35
2018-07-14T20:21:54.252Z,5.17
2018-07-14T20:24:26.786Z,5.80
2018-07-14T20:26:58.752Z,5.15
2018-07-14T20:29:31.240Z,4.92
2018-07-14T20:32:03.409Z,5.17
2018-07-14T20:34:35.590Z,4.80
2018-07-14T20:37:07.595Z,4.85
2018-07-14T20:39:39.710Z,5.00
2018-07-14T20:42:11.993Z,5.33
2018-07-14T20:44:43.943Z,4.42
2018-07-14T20:47:16.107Z,5.12
2018-07-14T20:49:49.028Z,5.30
2018-07-14T20:52:22.173Z,4.60
2018-07-14T20:54:54.684Z,4.75
2018-07-14T20:57:26.710Z,5.12
2018-07-14T20:59:58.408Z,5.45
2018-07-14T21:02:30.440Z,5.15
2018-07-14T21:05:02.290Z,5.22
2018-07-14T21:07:33.755Z,5.47
2018-07-14T21:10:05.453Z,5.50
2018-07-14T21:12:37.355Z,5.55
2018-07-14T21:15:09.775Z,5.33
2018-07-14T21:17:41.788Z,4.92
2018-07-14T21:20:13.981Z,4.92
2018-07-14T21:22:46.896Z,5.35
2018-07-14T21:25:19.424Z,5.35
2018-07-14T21:27:51.213Z,5.45
2018-07-14T21:30:23.243Z,5.30
2018-07-14T21:32:54.986Z,5.17
2018-07-14T21:35:27.003Z,5.30
2018-07-14T21:37:59.164Z,5.42
2018-07-14T21:40:30.769Z,5.37
2018-07-14T21:43:02.511Z,5.75
2018-07-14T21:45:34.032Z,4.97
2018-07-14T21:48:05.771Z,5.37
2018-07-14T21:50:37.559Z,5.50
2018-07-14T21:53:09.529Z,4.83
2018-07-14T21:55:41.260Z,5.22
2018-07-14T21:58:12.572Z,5.15
2018-07-14T22:00:49.310Z,5.50
2018-07-14T22:03:21.607Z,5.15
2018-07-14T22:05:53.183Z,5.10
2018-07-14T22:08:24.442Z,5.35
2018-07-14T22:10:56.158Z,5.10
2018-07-14T22:13:27.839Z,5.35
2018-07-14T22:15:59.792Z,5.50
2018-07-14T22:18:31.901Z,4.70
2018-07-14T22:21:03.608Z,5.05
2018-07-14T22:23:34.785Z,5.10
2018-07-14T22:26:06.828Z,5.12
2018-07-14T22:28:38.558Z,5.53
2018-07-14T22:31:09.922Z,5.60
2018-07-14T22:33:41.546Z,5.40
2018-07-14T22:36:13.097Z,4.95
2018-07-14T22:38:44.952Z,5.00
2018-07-14T22:41:17.317Z,4.83
2018-07-14T22:43:48.100Z,5.50
2018-07-14T22:46:19.928Z,5.35
2018-07-14T22:48:51.954Z,5.33
2018-07-14T22:51:23.208Z,5.17
2018-07-14T22:53:54.394Z,4.95
2018-07-14T22:56:25.659Z,5.30
2018-07-14T22:58:56.831Z,5.13
2018-07-14T23:01:28.096Z,4.95
2018-07-14T23:03:59.313Z,5.37
2018-07-14T23:06:30.881Z,4.73
2018-07-14T23:09:01.771Z,4.95
2018-07-14T23:11:33.875Z,5.70
2018-07-14T23:14:05.097Z,5.40
2018-07-14T23:16:36.759Z,4.42
2018-07-14T23:19:07.959Z,4.80
2018-07-14T23:21:39.564Z,5.28
2018-07-14T23:24:12.254Z,5.12
2018-07-14T23:26:43.463Z,6.03
2018-07-14T23:29:16.814Z,5.30
2018-07-14T23:31:48.032Z,5.10
2018-07-14T23:34:19.628Z,5.93
2018-07-14T23:36:50.386Z,5.00
2018-07-14T23:39:21.746Z,5.47
2018-07-14T23:41:52.830Z,5.43
2018-07-14T23:44:24.533Z,5.45
2018-07-14T23:46:55.757Z,5.28
2018-07-14T23:49:27.510Z,5.83
2018-07-14T23:51:58.719Z,5.10
2018-07-14T23:54:30.009Z,5.95
2018-07-14T23:57:01.539Z,5.22
2018-07-14T23:59:32.486Z,6.10
